Time;durP1;ratioP1;P1;durP2;ratioP2;P2;SDS_P1;SDS_P2;PMS_P1;PMS_P2;Temp;Humidity;BMP_temperature;BMP_pressure;BME280_temperature;BME280_humidity;BME280_pressure;Samples;Min_cycle;Max_cycle;Signal;HPM_P1;HPM_P2
2023/03/09 00:01:32;;;;;;;12.00;3.85;;;12.30;99.90;;;;;;4960875;28;20033;-69
2023/03/09 00:03:59;;;;;;;11.02;4.05;;;12.30;99.90;;;;;;4978340;28;20056;-73
2023/03/09 00:06:24;;;;;;;11.10;4.35;;;12.30;99.90;;;;;;4960730;28;20030;-71
2023/03/09 00:08:51;;;;;;;11.68;3.78;;;12.30;99.90;;;;;;4961050;28;20034;-69
2023/03/09 00:11:17;;;;;;;9.30;4.40;;;12.30;99.90;;;;;;4978106;28;20023;-69
2023/03/09 00:13:44;;;;;;;10.30;4.70;;;12.30;99.90;;;;;;4961035;28;20085;-69
2023/03/09 00:16:22;;;;;;;9.60;3.72;;;12.30;99.90;;;;;;4978065;28;20018;-69
2023/03/09 00:18:50;;;;;;;9.68;3.85;;;12.30;99.90;;;;;;4960885;28;20061;-69
2023/03/09 00:21:34;;;;;;;7.97;3.75;;;12.20;99.90;;;;;;4973434;28;20042;-69
2023/03/09 00:24:16;;;;;;;7.53;3.70;;;12.20;99.90;;;;;;4977971;28;20106;-69
2023/03/09 00:26:47;;;;;;;9.13;4.50;;;12.20;99.90;;;;;;4960812;28;20562;-69
2023/03/09 00:29:13;;;;;;;;;;;12.10;99.90;;;;;;4978386;28;20151;-69
2023/03/09 00:31:39;;;;;;;8.60;3.88;;;12.10;99.90;;;;;;4978030;28;20019;-69
2023/03/09 00:34:05;;;;;;;5.20;3.60;;;12.10;99.90;;;;;;4977679;28;20051;-69
2023/03/09 00:36:31;;;;;;;11.95;4.50;;;12.00;99.90;;;;;;4978197;28;20026;-69
2023/03/09 00:38:57;;;;;;;7.32;3.95;;;12.10;99.90;;;;;;4977611;28;20045;-71
2023/03/09 00:41:26;;;;;;;7.82;3.90;;;12.10;99.90;;;;;;4978168;28;20491;-71
2023/03/09 00:43:52;;;;;;;13.23;4.70;;;12.10;99.90;;;;;;4978997;28;20022;-71
2023/03/09 00:46:18;;;;;;;10.85;4.57;;;12.00;99.90;;;;;;4981877;28;20455;-71
2023/03/09 00:48:44;;;;;;;7.55;3.92;;;12.00;99.90;;;;;;4981574;28;20050;-70
2023/03/09 00:51:10;;;;;;;11.38;4.20;;;11.90;99.90;;;;;;4981807;28;20027;-71
2023/03/09 00:53:36;;;;;;;7.88;3.55;;;11.90;99.90;;;;;;4964243;28;20054;-70
2023/03/09 00:56:12;;;;;;;14.38;4.05;;;11.80;99.90;;;;;;4978536;28;20479;-71
2023/03/09 00:58:37;;;;;;;8.55;4.38;;;11.80;99.90;;;;;;4980173;28;20403;-71
2023/03/09 01:01:11;;;;;;;7.53;4.00;;;11.80;99.90;;;;;;4981477;28;20031;-70
2023/03/09 01:03:37;;;;;;;15.38;4.70;;;11.80;99.90;;;;;;4981293;28;20046;-70
2023/03/09 01:06:05;;;;;;;10.00;3.80;;;11.80;99.90;;;;;;4964040;28;20027;-70
2023/03/09 01:08:32;;;;;;;10.25;4.10;;;11.80;99.90;;;;;;4981571;28;20033;-70
2023/03/09 01:10:58;;;;;;;10.80;4.00;;;11.80;99.90;;;;;;4964214;28;20041;-70
2023/03/09 01:13:24;;;;;;;7.72;3.80;;;11.70;99.90;;;;;;4964210;28;20513;-70
2023/03/09 01:15:50;;;;;;;9.02;4.82;;;11.70;99.90;;;;;;4981356;28;20029;-70
2023/03/09 01:18:16;;;;;;;15.43;3.65;;;11.70;99.90;;;;;;4981133;28;20047;-70
2023/03/09 01:20:41;;;;;;;17.90;3.92;;;11.70;99.90;;;;;;4981227;28;20041;-71
2023/03/09 01:23:07;;;;;;;8.77;3.85;;;11.80;99.90;;;;;;4981171;28;20493;-70
2023/03/09 01:25:33;;;;;;;11.60;3.90;;;11.90;99.90;;;;;;4981025;28;20030;-71
2023/03/09 01:27:59;;;;;;;14.30;4.63;;;11.90;99.90;;;;;;4981234;28;20399;-70
2023/03/09 01:30:24;;;;;;;13.80;5.40;;;12.00;99.90;;;;;;4963667;28;20026;-70
2023/03/09 01:32:50;;;;;;;15.35;4.30;;;12.00;99.90;;;;;;4980891;28;20059;-70
2023/03/09 01:35:16;;;;;;;10.88;4.07;;;11.90;99.90;;;;;;4980993;28;20073;-70
2023/03/09 01:37:42;;;;;;;7.63;4.93;;;11.80;99.90;;;;;;4963325;28;20058;-70
2023/03/09 01:40:10;;;;;;;9.75;4.18;;;11.70;99.90;;;;;;4980944;28;20026;-70
2023/03/09 01:42:35;;;;;;;13.75;4.47;;;11.70;99.90;;;;;;4980982;28;20019;-70
2023/03/09 01:45:24;;;;;;;7.80;4.82;;;11.60;99.90;;;;;;4980828;28;20037;-70
2023/03/09 01:47:50;;;;;;;12.60;3.88;;;11.50;99.90;;;;;;4943414;28;20046;-70
2023/03/09 01:50:24;;;;;;;11.00;4.53;;;11.40;99.90;;;;;;4980701;28;20015;-71
2023/03/09 01:52:52;;;;;;;9.25;3.92;;;11.40;99.90;;;;;;4980840;28;20030;-70
2023/03/09 01:55:30;;;;;;;14.73;4.60;;;11.40;99.90;;;;;;4979115;28;20030;-70
2023/03/09 01:58:02;;;;;;;11.93;4.50;;;11.40;99.90;;;;;;4980673;28;20453;-70
2023/03/09 02:00:29;;;;;;;10.18;4.57;;;11.40;99.90;;;;;;4980830;28;20431;-70
2023/03/09 02:03:02;;;;;;;9.45;4.32;;;11.40;99.90;;;;;;4980354;28;20537;-70
2023/03/09 02:05:34;;;;;;;16.65;4.53;;;11.50;99.90;;;;;;4963373;28;20037;-70
2023/03/09 02:08:00;;;;;;;16.88;4.72;;;11.60;99.90;;;;;;4980267;28;20428;-70
2023/03/09 02:10:46;;;;;;;11.90;4.45;;;11.70;99.90;;;;;;4963274;28;20019;-71
2023/03/09 02:13:19;;;;;;;17.10;4.60;;;11.80;99.90;;;;;;4978547;28;20030;-71
2023/03/09 02:15:45;;;;;;;13.43;4.38;;;11.80;99.90;;;;;;4980533;28;20019;-71
2023/03/09 02:18:11;;;;;;;16.70;4.82;;;11.80;99.90;;;;;;4979974;28;20049;-71
2023/03/09 02:20:56;;;;;;;8.98;4.22;;;11.80;99.90;;;;;;4980489;28;20085;-71
2023/03/09 02:23:40;;;;;;;14.10;4.70;;;11.80;99.90;;;;;;4980241;28;20607;-71
2023/03/09 02:26:20;;;;;;;10.18;4.53;;;11.80;99.90;;;;;;4978092;28;20102;-71
2023/03/09 02:28:46;;;;;;;16.35;4.70;;;11.80;99.90;;;;;;4962757;28;20106;-71
2023/03/09 02:31:14;;;;;;;9.50;3.67;;;11.80;99.90;;;;;;4980061;28;20059;-71
2023/03/09 02:33:40;;;;;;;8.52;4.03;;;11.70;99.90;;;;;;4979588;28;20038;-71
2023/03/09 02:36:06;;;;;;;9.52;4.85;;;11.60;99.90;;;;;;4969618;28;20031;-71
2023/03/09 02:38:32;;;;;;;11.45;4.28;;;11.60;99.90;;;;;;4979637;28;20031;-71
2023/03/09 02:40:59;;;;;;;11.45;4.68;;;11.60;99.90;;;;;;4979829;28;20037;-71
2023/03/09 02:43:32;;;;;;;14.93;5.47;;;11.60;99.90;;;;;;4978846;28;20574;-71
2023/03/09 02:45:58;;;;;;;11.00;4.10;;;11.60;99.90;;;;;;4975821;28;20031;-71
2023/03/09 02:48:23;;;;;;;12.18;4.50;;;11.50;99.90;;;;;;4979386;28;20078;-71
2023/03/09 02:50:49;;;;;;;20.67;5.30;;;11.50;99.90;;;;;;4979779;28;20026;-71
2023/03/09 02:53:15;;;;;;;14.02;5.10;;;11.40;99.90;;;;;;4979191;28;20019;-71
2023/03/09 02:55:40;;;;;;;13.27;5.38;;;11.40;99.90;;;;;;4979705;28;20023;-71
2023/03/09 02:58:06;;;;;;;11.10;4.85;;;11.40;99.90;;;;;;4979377;28;20507;-71
2023/03/09 03:00:32;;;;;;;17.05;4.47;;;11.30;99.90;;;;;;4979414;28;20035;-71
2023/03/09 03:02:58;;;;;;;17.25;4.70;;;11.20;99.90;;;;;;4979158;28;20015;-71
2023/03/09 03:05:23;;;;;;;14.77;4.95;;;11.20;99.90;;;;;;4962258;28;20042;-71
2023/03/09 03:07:49;;;;;;;15.73;4.53;;;11.20;99.90;;;;;;4978771;28;20035;-71
2023/03/09 03:10:15;;;;;;;15.35;4.93;;;11.20;99.90;;;;;;4979405;28;20062;-71
2023/03/09 03:12:41;;;;;;;18.75;5.70;;;11.20;99.90;;;;;;4979102;28;20030;-71
2023/03/09 03:15:08;;;;;;;16.92;5.72;;;11.20;99.90;;;;;;4979235;28;20380;-71
2023/03/09 03:17:33;;;;;;;11.48;4.28;;;11.30;99.90;;;;;;4979024;28;20025;-71
2023/03/09 03:19:59;;;;;;;14.25;5.13;;;11.30;99.90;;;;;;4978937;28;20023;-71
2023/03/09 03:22:25;;;;;;;13.25;4.93;;;11.40;99.90;;;;;;4978859;28;20034;-70
2023/03/09 03:24:51;;;;;;;20.48;4.70;;;11.30;99.90;;;;;;4979185;28;20027;-71
2023/03/09 03:27:16;;;;;;;15.00;5.20;;;11.30;99.90;;;;;;4978797;28;20050;-71
2023/03/09 03:29:42;;;;;;;17.73;5.10;;;11.30;99.90;;;;;;4978984;28;20615;-70
2023/03/09 03:32:08;;;;;;;16.75;4.57;;;11.30;99.90;;;;;;4981100;28;20069;-71
2023/03/09 03:34:34;;;;;;;17.77;4.82;;;11.20;99.90;;;;;;4968244;28;20058;-71
2023/03/09 03:37:00;;;;;;;9.32;4.28;;;11.20;99.90;;;;;;4978597;28;20043;-71
2023/03/09 03:39:25;;;;;;;18.48;5.95;;;11.20;99.90;;;;;;4978843;28;20023;-71
2023/03/09 03:41:51;;;;;;;17.58;4.82;;;11.10;99.90;;;;;;4977723;28;20054;-71
2023/03/09 03:44:17;;;;;;;20.15;5.65;;;11.10;99.90;;;;;;4978607;28;20019;-70
2023/03/09 03:46:42;;;;;;;19.10;5.13;;;11.10;99.90;;;;;;4978634;28;20026;-71
2023/03/09 03:49:08;;;;;;;16.08;5.22;;;11.00;99.90;;;;;;4978383;28;20037;-71
2023/03/09 03:51:34;;;;;;;19.20;6.43;;;11.00;99.90;;;;;;4978247;28;20035;-71
2023/03/09 03:53:59;;;;;;;17.60;5.60;;;11.00;99.90;;;;;;4978500;28;20018;-70
2023/03/09 03:56:25;;;;;;;23.20;5.00;;;11.00;99.90;;;;;;4978495;28;20026;-71
2023/03/09 03:58:51;;;;;;;22.55;5.50;;;11.00;99.90;;;;;;4978464;28;20039;-71
2023/03/09 04:01:16;;;;;;;14.75;5.25;;;11.00;99.90;;;;;;4978251;28;20029;-71
2023/03/09 04:03:42;;;;;;;17.83;6.03;;;11.00;99.90;;;;;;4960881;28;20038;-71
2023/03/09 04:06:08;;;;;;;17.88;6.00;;;11.10;99.90;;;;;;4960057;28;20031;-71
2023/03/09 04:08:34;;;;;;;21.17;5.15;;;11.10;99.90;;;;;;4977974;28;20030;-71
2023/03/09 04:11:08;;;;;;;12.75;5.13;;;11.10;99.90;;;;;;4978289;28;20023;-71
2023/03/09 04:13:34;;;;;;;14.35;5.10;;;11.10;99.90;;;;;;4948889;28;20053;-71
2023/03/09 04:15:59;;;;;;;17.50;5.38;;;11.00;99.90;;;;;;4978154;28;20026;-70
2023/03/09 04:18:25;;;;;;;22.83;6.70;;;11.00;99.90;;;;;;4977361;28;20586;-70
2023/03/09 04:20:50;;;;;;;19.58;4.50;;;11.00;99.90;;;;;;4978073;28;20034;-70
2023/03/09 04:23:16;;;;;;;20.77;4.95;;;11.00;99.90;;;;;;4978080;28;20058;-71
2023/03/09 04:25:42;;;;;;;16.48;5.20;;;11.00;99.90;;;;;;4978102;28;20031;-71
2023/03/09 04:28:07;;;;;;;30.40;5.97;;;11.00;99.90;;;;;;4978260;28;20475;-71
2023/03/09 04:30:33;;;;;;;29.83;6.80;;;11.00;99.90;;;;;;4977868;28;20042;-70
2023/03/09 04:32:59;;;;;;;18.55;5.63;;;11.10;99.90;;;;;;4978152;28;20089;-70
2023/03/09 04:35:24;;;;;;;15.93;5.57;;;11.10;99.90;;;;;;4977885;28;20027;-70
2023/03/09 04:37:51;;;;;;;17.17;5.43;;;11.10;99.90;;;;;;4977989;28;20051;-70
2023/03/09 04:40:17;;;;;;;26.50;5.32;;;11.10;99.90;;;;;;4977689;28;20046;-70
2023/03/09 04:42:43;;;;;;;24.50;6.60;;;11.10;99.90;;;;;;4978201;28;20019;-70
2023/03/09 04:45:09;;;;;;;20.05;5.43;;;11.00;99.90;;;;;;4977627;28;20086;-70
2023/03/09 04:47:35;;;;;;;12.13;5.30;;;11.00;99.90;;;;;;4977990;28;20030;-70
2023/03/09 04:50:01;;;;;;;22.70;5.72;;;10.90;99.90;;;;;;4977827;28;20054;-70
2023/03/09 04:52:27;;;;;;;20.73;4.97;;;10.80;99.90;;;;;;4977898;28;20098;-70
2023/03/09 04:54:54;;;;;;;20.88;5.32;;;10.80;99.90;;;;;;4977699;28;20034;-70
2023/03/09 04:57:21;;;;;;;20.83;6.10;;;10.80;99.90;;;;;;4960673;28;20035;-70
2023/03/09 04:59:46;;;;;;;21.40;5.72;;;10.70;99.90;;;;;;4977598;28;20047;-70
2023/03/09 05:02:12;;;;;;;33.85;6.63;;;10.80;99.90;;;;;;4977961;28;20026;-70
2023/03/09 05:04:38;;;;;;;17.45;5.30;;;10.70;99.90;;;;;;4977414;28;20031;-70
2023/03/09 05:07:03;;;;;;;20.23;5.07;;;10.70;99.90;;;;;;4960443;28;20031;-70
2023/03/09 05:09:29;;;;;;;18.80;6.57;;;10.70;99.90;;;;;;4977625;28;20033;-70
2023/03/09 05:11:55;;;;;;;23.50;6.13;;;10.70;99.90;;;;;;4977881;28;20104;-70
2023/03/09 05:14:21;;;;;;;13.23;4.93;;;10.60;99.90;;;;;;4977428;28;20391;-70
2023/03/09 05:16:51;;;;;;;23.63;5.40;;;10.60;99.90;;;;;;4960417;28;20018;-70
2023/03/09 05:19:18;;;;;;;23.23;5.72;;;10.50;99.90;;;;;;4977108;28;20023;-70
2023/03/09 05:21:43;;;;;;;19.50;4.97;;;10.50;99.90;;;;;;4977785;28;20023;-70
2023/03/09 05:24:09;;;;;;;17.02;6.43;;;10.50;99.90;;;;;;4977436;28;20081;-70
2023/03/09 05:26:34;;;;;;;19.00;5.20;;;10.50;99.90;;;;;;4960298;28;20031;-70
2023/03/09 05:29:00;;;;;;;22.50;6.72;;;10.40;99.90;;;;;;4968897;28;20030;-70
2023/03/09 05:31:26;;;;;;;17.83;5.10;;;10.40;99.90;;;;;;4981040;28;20027;-70
2023/03/09 05:33:55;;;;;;;17.90;5.43;;;10.40;99.90;;;;;;4980627;28;20022;-70
2023/03/09 05:36:25;;;;;;;22.02;5.80;;;10.30;99.90;;;;;;4963507;28;20022;-70
2023/03/09 05:38:52;;;;;;;18.38;6.97;;;10.30;99.90;;;;;;4980713;28;20047;-70
2023/03/09 05:41:19;;;;;;;23.92;6.72;;;10.20;99.90;;;;;;4980813;28;20027;-70
2023/03/09 05:43:45;;;;;;;18.80;6.68;;;10.20;99.90;;;;;;4980881;28;20046;-70
2023/03/09 05:46:14;;;;;;;19.85;6.82;;;10.10;99.90;;;;;;4980707;28;20558;-71
2023/03/09 05:48:40;;;;;;;19.85;6.35;;;10.00;99.90;;;;;;4963228;28;20031;-70
2023/03/09 05:51:07;;;;;;;18.67;5.90;;;10.00;99.90;;;;;;4963229;28;20030;-71
2023/03/09 05:53:34;;;;;;;23.33;6.10;;;10.00;99.90;;;;;;4980609;28;20027;-70
2023/03/09 05:56:00;;;;;;;13.60;6.10;;;9.90;99.90;;;;;;4980586;28;20019;-70
2023/03/09 05:58:26;;;;;;;16.10;5.68;;;9.90;99.90;;;;;;4963290;28;20391;-70
2023/03/09 06:00:52;;;;;;;28.38;6.05;;;9.90;99.90;;;;;;4980483;28;20514;-70
2023/03/09 06:03:21;;;;;;;20.42;7.03;;;9.90;99.90;;;;;;4963017;28;20559;-70
2023/03/09 06:05:47;;;;;;;29.75;6.30;;;9.80;99.90;;;;;;4980440;28;20019;-70
2023/03/09 06:08:13;;;;;;;17.00;5.32;;;9.80;99.90;;;;;;4980247;28;20517;-69
2023/03/09 06:10:39;;;;;;;25.13;6.13;;;9.90;99.90;;;;;;4980398;28;20542;-70
2023/03/09 06:13:05;;;;;;;19.83;6.72;;;9.80;99.90;;;;;;4962893;28;20137;-70
2023/03/09 06:15:31;;;;;;;19.38;5.82;;;9.80;99.90;;;;;;4962741;28;20034;-70
2023/03/09 06:17:57;;;;;;;26.60;5.97;;;9.80;99.90;;;;;;4980061;28;20138;-70
2023/03/09 06:20:23;;;;;;;17.52;6.20;;;9.80;99.90;;;;;;4980241;28;20094;-71
2023/03/09 06:22:48;;;;;;;21.23;5.82;;;9.80;99.90;;;;;;4980092;28;20027;-71
2023/03/09 06:25:14;;;;;;;20.80;5.75;;;9.80;99.90;;;;;;4980098;28;20023;-70
2023/03/09 06:27:41;;;;;;;20.38;6.15;;;9.80;99.90;;;;;;4980175;28;20111;-70
2023/03/09 06:30:07;;;;;;;17.05;5.55;;;9.80;99.90;;;;;;4962700;28;20395;-71
2023/03/09 06:32:34;;;;;;;13.65;5.35;;;9.80;99.90;;;;;;4979916;28;20510;-70
2023/03/09 06:35:00;;;;;;;26.02;6.32;;;9.80;99.90;;;;;;4962478;28;20027;-70
2023/03/09 06:37:26;;;;;;;15.90;6.07;;;9.80;99.90;;;;;;4962337;28;20528;-70
2023/03/09 06:39:52;;;;;;;21.15;6.03;;;9.90;99.90;;;;;;4980064;28;20023;-70
2023/03/09 06:42:18;;;;;;;26.52;7.10;;;9.90;99.90;;;;;;4978939;28;20084;-70
2023/03/09 06:44:44;;;;;;;11.07;5.32;;;9.90;99.90;;;;;;4962254;28;20031;-70
2023/03/09 06:47:11;;;;;;;12.60;5.25;;;9.90;99.90;;;;;;4979685;28;20026;-71
2023/03/09 06:49:37;;;;;;;20.40;6.75;;;9.80;99.90;;;;;;4979296;28;20041;-70
2023/03/09 06:52:05;;;;;;;21.35;6.18;;;9.80;99.90;;;;;;4979554;28;20026;-70
2023/03/09 06:54:30;;;;;;;18.20;6.07;;;9.80;99.90;;;;;;4979352;28;20479;-71
2023/03/09 06:56:56;;;;;;;20.02;7.15;;;9.80;99.90;;;;;;4962181;28;20031;-70
2023/03/09 06:59:21;;;;;;;18.20;6.45;;;9.80;99.90;;;;;;4961956;28;20046;-70
2023/03/09 07:01:47;;;;;;;20.42;6.93;;;9.80;99.90;;;;;;4979439;28;20029;-70
2023/03/09 07:04:13;;;;;;;18.83;6.60;;;9.90;99.90;;;;;;4979255;28;20392;-70
2023/03/09 07:06:38;;;;;;;19.42;7.30;;;9.90;99.90;;;;;;4977876;28;20038;-70
2023/03/09 07:09:04;;;;;;;30.15;8.88;;;9.90;99.90;;;;;;4979221;28;20085;-69
2023/03/09 07:11:30;;;;;;;23.85;7.00;;;9.90;99.90;;;;;;4978492;28;20451;-69
2023/03/09 07:13:56;;;;;;;23.58;7.75;;;10.00;99.90;;;;;;4979122;28;20034;-70
2023/03/09 07:16:25;;;;;;;21.60;7.45;;;10.00;99.90;;;;;;4961856;28;20038;-69
2023/03/09 07:18:51;;;;;;;16.98;7.57;;;10.00;99.90;;;;;;4978907;28;20074;-70
2023/03/09 07:21:17;;;;;;;14.75;6.45;;;10.10;99.90;;;;;;4978956;28;20027;-70
2023/03/09 07:23:43;;;;;;;14.23;6.93;;;10.10;99.90;;;;;;4961547;28;20023;-70
2023/03/09 07:26:08;;;;;;;22.67;7.65;;;10.20;99.90;;;;;;4961545;28;20031;-70
2023/03/09 07:28:34;;;;;;;16.25;7.20;;;10.20;99.90;;;;;;4961719;28;20073;-70
2023/03/09 07:31:08;;;;;;;19.10;6.72;;;10.30;99.90;;;;;;4978634;28;20043;-69
2023/03/09 07:33:34;;;;;;;14.93;7.50;;;10.30;99.90;;;;;;4975014;28;20061;-70
2023/03/09 07:36:08;;;;;;;19.88;6.57;;;10.30;99.90;;;;;;4981331;28;20054;-70
2023/03/09 07:38:34;;;;;;;18.20;7.15;;;10.40;99.90;;;;;;4991374;28;20038;-70
2023/03/09 07:41:00;;;;;;;21.15;6.20;;;10.40;99.90;;;;;;4987660;28;20022;-70
2023/03/09 07:43:27;;;;;;;18.27;6.93;;;10.40;99.90;;;;;;4996775;28;20022;-69
2023/03/09 07:45:53;;;;;;;13.98;6.07;;;10.50;99.90;;;;;;4986196;28;20120;-69
2023/03/09 07:48:19;;;;;;;16.95;6.85;;;10.50;99.90;;;;;;4991553;28;20018;-70
2023/03/09 07:50:45;;;;;;;10.73;5.82;;;10.60;99.90;;;;;;4986928;28;20486;-70
2023/03/09 07:53:11;;;;;;;16.38;6.80;;;10.70;99.90;;;;;;4992013;28;20497;-69
2023/03/09 07:55:38;;;;;;;18.08;7.13;;;10.70;99.90;;;;;;4990026;28;20409;-69
2023/03/09 07:58:04;;;;;;;20.33;7.50;;;10.80;99.90;;;;;;4990122;28;20014;-69
2023/03/09 08:00:32;;;;;;;27.23;8.93;;;10.80;99.90;;;;;;4990471;28;20394;-69
2023/03/09 08:02:58;;;;;;;15.65;7.30;;;11.00;99.90;;;;;;4974574;28;20034;-70
2023/03/09 08:05:23;;;;;;;19.58;9.27;;;11.10;99.90;;;;;;4987974;28;20026;-69
2023/03/09 08:07:49;;;;;;;20.30;7.90;;;11.20;99.90;;;;;;4976864;28;20068;-70
2023/03/09 08:10:16;;;;;;;18.60;9.23;;;11.20;99.90;;;;;;4971897;28;20486;-70
2023/03/09 08:12:46;;;;;;;17.15;10.02;;;11.30;99.90;;;;;;4990434;28;20030;-70
2023/03/09 08:15:12;;;;;;;19.92;8.55;;;11.30;99.90;;;;;;4989424;28;20172;-70
2023/03/09 08:17:37;;;;;;;17.52;8.32;;;11.50;99.90;;;;;;4986550;28;20026;-70
2023/03/09 08:20:11;;;;;;;22.67;8.40;;;11.60;99.90;;;;;;4989900;28;20382;-70
2023/03/09 08:22:37;;;;;;;20.88;7.82;;;11.70;99.90;;;;;;4991313;28;20026;-70
2023/03/09 08:25:03;;;;;;;16.45;8.20;;;11.80;99.90;;;;;;4985656;28;20061;-70
2023/03/09 08:27:30;;;;;;;15.20;9.00;;;11.90;99.90;;;;;;4974874;28;20034;-70
2023/03/09 08:29:56;;;;;;;16.95;6.68;;;11.80;99.90;;;;;;4990128;28;20728;-69
2023/03/09 08:32:23;;;;;;;15.82;7.05;;;11.80;99.90;;;;;;4974649;28;20088;-70
2023/03/09 08:34:53;;;;;;;11.00;6.03;;;11.90;99.90;;;;;;4973074;28;20034;-70
2023/03/09 08:37:19;;;;;;;9.85;6.45;;;12.00;99.90;;;;;;4984307;28;20106;-68
2023/03/09 08:39:44;;;;;;;18.80;5.88;;;12.20;99.90;;;;;;4990943;28;20457;-70
2023/03/09 08:42:10;;;;;;;15.75;7.55;;;12.30;99.90;;;;;;4973045;28;20023;-70
2023/03/09 08:44:36;;;;;;;26.58;7.57;;;12.30;99.90;;;;;;4968868;28;20062;-68
2023/03/09 08:47:02;;;;;;;11.85;6.68;;;12.40;99.90;;;;;;4977804;28;20124;-68
2023/03/09 08:49:28;;;;;;;12.57;5.97;;;12.50;99.90;;;;;;4977349;28;20049;-68
2023/03/09 08:51:53;;;;;;;18.73;6.57;;;12.50;99.90;;;;;;4975738;28;20101;-69
2023/03/09 08:54:19;;;;;;;14.98;7.47;;;12.60;99.90;;;;;;4976856;28;20062;-67
2023/03/09 08:56:44;;;;;;;17.30;6.93;;;12.70;99.90;;;;;;4960350;28;20050;-70
2023/03/09 08:59:10;;;;;;;16.33;7.18;;;12.60;99.90;;;;;;4977535;28;20026;-70
2023/03/09 09:01:36;;;;;;;18.95;8.80;;;12.60;99.90;;;;;;4977528;28;20019;-67
2023/03/09 09:04:01;;;;;;;388.27;238.82;;;12.70;99.90;;;;;;4977720;28;20038;-70
2023/03/09 09:06:28;;;;;;;142.02;81.07;;;12.90;99.90;;;;;;4981148;28;20030;-70
2023/03/09 09:08:54;;;;;;;32.85;18.08;;;13.10;99.90;;;;;;4981569;28;20027;-69
2023/03/09 09:11:19;;;;;;;16.45;8.93;;;13.10;99.90;;;;;;4981293;28;20030;-69
2023/03/09 09:13:45;;;;;;;20.08;8.77;;;13.30;99.90;;;;;;4964144;28;20031;-70
2023/03/09 09:16:12;;;;;;;19.52;10.98;;;13.40;99.90;;;;;;4981311;28;20067;-68
2023/03/09 09:18:38;;;;;;;16.20;8.93;;;13.50;99.90;;;;;;4981264;28;20027;-68
2023/03/09 09:21:07;;;;;;;22.23;9.60;;;13.60;99.90;;;;;;4981001;28;20023;-67
2023/03/09 09:23:34;;;;;;;19.65;8.43;;;13.60;99.90;;;;;;4981456;28;20058;-68
2023/03/09 09:26:00;;;;;;;17.38;7.15;;;13.70;99.90;;;;;;4980994;28;20027;-68
2023/03/09 09:28:25;;;;;;;15.27;5.80;;;13.70;99.90;;;;;;4981343;28;20034;-68
2023/03/09 09:30:56;;;;;;;17.15;6.78;;;13.50;99.90;;;;;;4980974;28;20027;-67
2023/03/09 09:33:22;;;;;;;113.68;63.60;;;13.70;99.90;;;;;;4963647;28;20483;-68
2023/03/09 09:36:16;;;;;;;17.17;5.93;;;13.80;99.90;;;;;;4980983;28;20057;-68
2023/03/09 09:38:42;;;;;;;16.15;6.82;;;14.00;99.90;;;;;;4979286;28;20046;-68
2023/03/09 09:41:11;;;;;;;21.98;6.13;;;14.00;99.90;;;;;;4981183;28;20034;-68
2023/03/09 09:43:38;;;;;;;14.32;6.63;;;14.00;99.90;;;;;;4963484;28;20022;-68
2023/03/09 09:46:05;;;;;;;17.17;8.23;;;14.00;99.90;;;;;;4980748;28;20043;-68
2023/03/09 09:48:32;;;;;;;16.48;8.18;;;14.30;99.90;;;;;;4963053;28;20101;-68
2023/03/09 09:51:19;;;;;;;13.13;5.93;;;14.30;99.90;;;;;;4963321;28;20502;-68
2023/03/09 09:54:04;;;;;;;11.23;5.25;;;14.20;99.90;;;;;;4978813;28;20023;-68
2023/03/09 09:56:55;;;;;;;12.25;5.18;;;14.20;99.90;;;;;;4980622;28;20015;-68
2023/03/09 09:59:21;;;;;;;9.32;5.00;;;14.30;99.90;;;;;;4976010;28;20055;-68
2023/03/09 10:02:03;;;;;;;10.35;4.72;;;14.30;99.90;;;;;;4980498;28;20100;-68
2023/03/09 10:04:36;;;;;;;15.82;6.30;;;14.30;99.90;;;;;;4962919;28;20031;-68
2023/03/09 10:07:11;;;;;;;16.60;6.45;;;14.10;99.90;;;;;;4980577;28;20106;-68
2023/03/09 10:09:40;;;;;;;14.35;6.60;;;14.20;99.90;;;;;;4980393;28;20031;-68
2023/03/09 10:12:09;;;;;;;23.15;8.18;;;14.20;99.90;;;;;;4980414;28;20033;-68
2023/03/09 10:14:53;;;;;;;15.82;7.75;;;14.30;99.90;;;;;;4980148;28;20404;-68
2023/03/09 10:17:30;;;;;;;21.23;9.63;;;14.30;99.90;;;;;;4978913;28;20427;-68
2023/03/09 10:20:09;;;;;;;20.80;11.95;;;14.50;99.90;;;;;;4980385;28;20035;-68
2023/03/09 10:22:36;;;;;;;18.20;6.88;;;14.50;99.90;;;;;;4979591;28;20521;-68
2023/03/09 10:25:11;;;;;;;18.63;8.88;;;14.50;99.90;;;;;;4962897;28;20030;-68
2023/03/09 10:27:50;;;;;;;22.42;10.55;;;14.70;99.90;;;;;;4959782;28;20026;-68
2023/03/09 10:30:32;;;;;;;29.90;13.65;;;14.80;99.90;;;;;;4979980;28;20431;-68
2023/03/09 10:33:09;;;;;;;33.80;18.92;;;14.90;99.90;;;;;;4975971;28;20507;-68
2023/03/09 10:35:47;;;;;;;20.50;13.32;;;14.90;99.90;;;;;;4973773;28;20598;-69
2023/03/09 10:38:18;;;;;;;26.67;15.93;;;15.00;99.90;;;;;;4990912;28;20054;-69
2023/03/09 10:40:46;;;;;;;16.23;6.63;;;14.90;99.90;;;;;;4972844;28;20475;-69
2023/03/09 10:43:31;;;;;;;27.50;18.75;;;14.90;99.90;;;;;;4992637;28;20022;-69
2023/03/09 10:46:12;;;;;;;21.95;10.20;;;14.80;99.90;;;;;;4990490;28;20027;-71
2023/03/09 10:48:37;;;;;;;;;;;14.80;99.90;;;;;;4981760;28;20029;-69
2023/03/09 10:51:05;;;;;;;13.23;5.32;;;14.70;99.90;;;;;;4993327;28;19909;-69
2023/03/09 10:53:43;;;;;;;23.52;6.85;;;14.60;99.90;;;;;;4992545;28;20435;-69
2023/03/09 10:56:30;;;;;;;16.25;7.05;;;14.60;99.90;;;;;;4981078;28;20113;-70
2023/03/09 10:59:07;;;;;;;20.42;5.13;;;14.60;99.90;;;;;;4991167;28;20066;-70
2023/03/09 11:01:37;;;;;;;16.42;5.63;;;14.70;99.90;;;;;;4987499;28;20046;-71
2023/03/09 11:04:27;;;;;;;16.00;5.87;;;14.70;99.90;;;;;;4974738;28;20037;-70
2023/03/09 11:06:53;;;;;;;15.45;4.18;;;14.80;99.90;;;;;;4981249;28;20038;-72
2023/03/09 11:09:25;;;;;;;14.55;4.88;;;14.90;99.90;;;;;;4972821;28;20030;-71
2023/03/09 11:11:50;;;;;;;16.23;5.32;;;15.00;99.90;;;;;;4992113;28;20059;-70
2023/03/09 11:14:21;;;;;;;8.50;4.32;;;15.10;99.90;;;;;;4972119;28;20061;-69
2023/03/09 11:16:52;;;;;;;15.68;4.72;;;15.20;99.90;;;;;;4969758;28;20129;-69
2023/03/09 11:19:19;;;;;;;14.25;5.25;;;15.30;99.90;;;;;;4995782;28;20026;-70
2023/03/09 11:21:57;;;;;;;15.48;5.75;;;15.30;99.90;;;;;;4986521;28;20129;-69
2023/03/09 11:24:44;;;;;;;15.80;4.47;;;15.40;99.90;;;;;;4986248;28;20388;-70
2023/03/09 11:27:26;;;;;;;14.57;4.57;;;15.50;99.90;;;;;;4991380;28;20032;-70
2023/03/09 11:29:58;;;;;;;19.95;5.15;;;15.60;99.90;;;;;;4990089;28;20402;-70
2023/03/09 11:32:24;;;;;;;12.25;4.00;;;15.60;99.90;;;;;;4990293;28;20032;-69
2023/03/09 11:34:50;;;;;;;13.68;4.57;;;15.70;99.90;;;;;;4970264;28;20054;-70
2023/03/09 11:37:40;;;;;;;14.32;5.25;;;15.90;99.90;;;;;;4991475;28;20101;-70
2023/03/09 11:40:13;;;;;;;11.00;4.40;;;15.90;99.90;;;;;;4986615;28;20033;-70
2023/03/09 11:42:42;;;;;;;14.13;4.88;;;16.00;99.90;;;;;;4989534;28;20282;-70
2023/03/09 11:45:19;;;;;;;20.05;3.90;;;16.10;99.90;;;;;;4989169;28;20550;-70
2023/03/09 11:48:18;;;;;;;16.52;4.65;;;16.10;99.90;;;;;;4971718;28;20034;-70
2023/03/09 11:50:58;;;;;;;15.45;4.50;;;16.20;99.90;;;;;;4991283;28;20061;-71
2023/03/09 11:54:01;;;;;;;19.15;5.15;;;16.30;99.90;;;;;;4975749;28;20134;-70
2023/03/09 11:56:28;;;;;;;18.45;5.70;;;16.40;99.90;;;;;;4980899;28;20030;-70
2023/03/09 11:59:11;;;;;;;11.82;3.75;;;16.40;99.90;;;;;;4990864;28;20092;-70
2023/03/09 12:01:52;;;;;;;13.55;4.40;;;16.40;99.90;;;;;;4986702;28;20050;-70
2023/03/09 12:04:18;;;;;;;;;;;16.40;99.90;;;;;;4985029;28;20475;-70
2023/03/09 12:07:00;;;;;;;9.63;3.13;;;16.60;99.90;;;;;;4991167;28;19932;-70
2023/03/09 12:10:09;;;;;;;20.08;4.55;;;16.60;99.90;;;;;;4990799;28;20031;-70
2023/03/09 12:12:48;;;;;;;11.68;3.90;;;16.70;99.90;;;;;;4947877;28;20103;-70
2023/03/09 12:15:43;;;;;;;18.77;4.85;;;16.70;99.90;;;;;;4983347;28;20129;-70
2023/03/09 12:18:25;;;;;;;16.23;4.40;;;16.70;99.90;;;;;;4974074;28;20521;-71
2023/03/09 12:20:54;;;;;;;19.13;4.55;;;16.70;99.90;;;;;;4970156;28;20081;-71
2023/03/09 12:23:35;;;;;;;16.17;4.00;;;16.80;99.90;;;;;;4970284;28;20022;-71
2023/03/09 12:26:14;;;;;;;10.93;4.25;;;16.90;99.90;;;;;;4991617;28;20018;-71
2023/03/09 12:28:40;;;;;;;22.23;4.15;;;16.90;99.90;;;;;;4982564;28;20029;-70
2023/03/09 12:31:24;;;;;;;12.82;3.28;;;17.00;99.90;;;;;;4986966;28;20022;-70
2023/03/09 12:33:56;;;;;;;12.98;3.42;;;17.10;99.90;;;;;;4987545;28;20402;-70
2023/03/09 12:36:23;;;;;;;10.85;3.60;;;17.10;99.90;;;;;;4972018;28;20059;-70
2023/03/09 12:39:31;;;;;;;13.52;4.15;;;17.20;99.90;;;;;;4988915;28;20050;-70
2023/03/09 12:42:01;;;;;;;10.77;4.60;;;17.20;99.90;;;;;;4985991;28;20387;-70
2023/03/09 12:44:45;;;;;;;12.90;3.97;;;17.30;99.90;;;;;;4992065;28;20391;-70
2023/03/09 12:47:23;;;;;;;13.90;4.20;;;17.30;99.90;;;;;;4990415;28;20033;-69
2023/03/09 12:49:54;;;;;;;10.98;3.35;;;17.50;99.90;;;;;;4992101;28;20027;-70